Time;durP1;ratioP1;P1;durP2;ratioP2;P2;SDS_P1;SDS_P2;PMS_P1;PMS_P2;Temp;Humidity;BMP_temperature;BMP_pressure;BME280_temperature;BME280_humidity;BME280_pressure;Samples;Min_cycle;Max_cycle;Signal;HPM_P1;HPM_P2
2021/01/01 00:01:42;;;;;;;;;;;4.60;82.30;;;;;;4911533;28;19994;-42
2021/01/01 00:04:08;;;;;;;;;;;4.60;82.30;;;;;;4908745;28;20326;-42
2021/01/01 00:06:47;;;;;;;;;;;4.60;82.40;;;;;;4922279;28;24181;-42
2021/01/01 00:09:14;;;;;;;;;;;4.60;82.50;;;;;;4912557;28;19934;-42
2021/01/01 00:11:40;;;;;;;;;;;4.60;82.50;;;;;;4911632;28;19927;-42
2021/01/01 00:14:07;;;;;;;;;;;4.60;82.50;;;;;;4913155;28;19937;-42
2021/01/01 00:16:34;;;;;;;;;;;4.60;82.60;;;;;;4910207;28;20291;-44
2021/01/01 00:19:00;;;;;;;;;;;4.60;82.60;;;;;;4909239;28;19999;-45
2021/01/01 00:21:29;;;;;;;;;;;4.60;82.70;;;;;;4908143;28;19937;-42
2021/01/01 00:23:56;;;;;;;;;;;4.60;82.70;;;;;;4912348;28;20004;-44
2021/01/01 00:26:22;;;;;;;;;;;4.60;82.70;;;;;;4908474;28;19937;-43
2021/01/01 00:28:49;;;;;;;;;;;4.60;82.80;;;;;;4910769;28;19934;-44
2021/01/01 00:31:16;;;;;;;;;;;4.60;82.80;;;;;;4909659;28;19926;-42
2021/01/01 00:33:45;;;;;;;;;;;4.60;83.00;;;;;;4913212;28;19940;-41
2021/01/01 00:36:12;;;;;;;;;;;4.60;83.10;;;;;;4913077;28;19940;-42
2021/01/01 00:38:39;;;;;;;;;;;4.60;83.20;;;;;;4909621;28;19934;-42
2021/01/01 00:41:06;;;;;;;;;;;4.60;83.30;;;;;;4911223;28;19973;-41
2021/01/01 00:43:33;;;;;;;;;;;4.60;83.40;;;;;;4925734;28;20302;-44
2021/01/01 00:46:00;;;;;;;;;;;4.60;83.40;;;;;;4913887;28;19926;-44
2021/01/01 00:48:26;;;;;;;;;;;4.70;83.50;;;;;;4906273;28;24946;-44
2021/01/01 00:50:52;;;;;;;;;;;4.70;83.60;;;;;;4903517;28;20394;-41
2021/01/01 00:53:18;;;;;;;;;;;4.70;83.60;;;;;;4894771;28;20401;-44
2021/01/01 00:55:45;;;;;;;;;;;4.70;83.60;;;;;;4912642;28;20453;-42
2021/01/01 00:58:11;;;;;;;;;;;4.70;83.50;;;;;;4914198;28;19926;-45
2021/01/01 01:00:38;;;;;;;;;;;4.70;83.60;;;;;;4906649;28;22445;-44
2021/01/01 01:03:04;;;;;;;;;;;4.70;83.60;;;;;;4907180;28;22236;-44
2021/01/01 01:05:30;;;;;;;;;;;4.70;83.50;;;;;;4909027;28;19941;-42
2021/01/01 01:07:57;;;;;;;;;;;4.70;83.40;;;;;;4904464;28;19926;-42
2021/01/01 01:10:24;;;;;;;;;;;4.70;83.40;;;;;;4911118;28;19988;-44
2021/01/01 01:12:50;;;;;;;;;;;4.70;83.50;;;;;;4904080;28;19926;-44
2021/01/01 01:15:16;;;;;;;;;;;4.70;83.50;;;;;;4895901;28;19996;-42
2021/01/01 01:17:43;;;;;;;;;;;4.80;83.30;;;;;;4906259;28;19930;-42
2021/01/01 01:20:09;;;;;;;;;;;4.80;83.30;;;;;;4899936;28;19926;-41
2021/01/01 01:22:38;;;;;;;;;;;4.70;83.30;;;;;;4905597;28;19926;-44
2021/01/01 01:25:05;;;;;;;;;;;4.80;83.30;;;;;;4905902;28;20611;-43
2021/01/01 01:27:31;;;;;;;;;;;4.80;83.40;;;;;;4904948;28;19930;-41
2021/01/01 01:30:00;;;;;;;;;;;4.80;83.40;;;;;;4908826;28;19934;-44
2021/01/01 01:32:26;;;;;;;;;;;4.80;83.40;;;;;;4902849;28;20647;-42
2021/01/01 01:34:52;;;;;;;;;;;4.80;83.40;;;;;;4907917;28;19934;-42
2021/01/01 01:37:18;;;;;;;;;;;4.80;83.30;;;;;;4900653;28;20016;-41
2021/01/01 01:39:44;;;;;;;;;;;4.80;83.40;;;;;;4909426;28;19934;-42
2021/01/01 01:42:12;;;;;;;;;;;4.80;83.40;;;;;;4900382;28;20136;-43
2021/01/01 01:44:39;;;;;;;;;;;4.80;83.40;;;;;;4908268;28;22419;-42
2021/01/01 01:47:05;;;;;;;;;;;4.80;83.40;;;;;;4902042;28;19936;-44
2021/01/01 01:49:32;;;;;;;;;;;4.80;83.40;;;;;;4911846;28;19940;-44
2021/01/01 01:52:00;;;;;;;;;;;4.80;83.40;;;;;;4908482;28;19977;-43
2021/01/01 01:54:28;;;;;;;;;;;4.80;83.40;;;;;;4914742;28;19934;-44
2021/01/01 01:56:54;;;;;;;;;;;4.80;83.50;;;;;;4913770;28;19926;-44
2021/01/01 01:59:22;;;;;;;;;;;4.80;83.40;;;;;;4909000;28;19941;-42
2021/01/01 02:01:48;;;;;;;;;;;4.80;83.50;;;;;;4910264;28;19947;-44
2021/01/01 02:04:14;;;;;;;;;;;4.80;83.50;;;;;;4901648;28;21500;-42
2021/01/01 02:06:41;;;;;;;;;;;4.80;83.50;;;;;;4910149;28;19941;-41
2021/01/01 02:09:09;;;;;;;;;;;4.80;83.50;;;;;;4930051;28;20019;-42
2021/01/01 02:11:37;;;;;;;;;;;4.80;83.50;;;;;;4903651;28;19940;-42
2021/01/01 02:14:04;;;;;;;;;;;4.80;83.40;;;;;;4905158;28;19926;-44
2021/01/01 02:16:32;;;;;;;;;;;4.80;83.30;;;;;;4913612;28;19950;-42
2021/01/01 02:18:58;;;;;;;;;;;4.80;83.20;;;;;;4910261;28;20393;-43
2021/01/01 02:21:24;;;;;;;;;;;4.80;83.30;;;;;;4908112;28;19933;-44
2021/01/01 02:23:50;;;;;;;;;;;4.80;83.30;;;;;;4915059;28;19941;-43
2021/01/01 02:26:16;;;;;;;;;;;4.80;83.40;;;;;;4909177;28;19926;-44
2021/01/01 02:28:42;;;;;;;;;;;4.80;83.40;;;;;;4916035;28;19934;-44
2021/01/01 02:31:09;;;;;;;;;;;4.80;83.40;;;;;;4905059;28;19930;-44
2021/01/01 02:33:35;;;;;;;;;;;4.90;83.40;;;;;;4907234;28;20362;-42
2021/01/01 02:36:05;;;;;;;;;;;4.90;83.40;;;;;;4912714;28;19926;-44
2021/01/01 02:38:32;;;;;;;;;;;4.90;83.50;;;;;;4911365;28;19933;-42
2021/01/01 02:40:58;;;;;;;;;;;4.90;83.50;;;;;;4907830;28;19941;-42
2021/01/01 02:43:26;;;;;;;;;;;4.90;83.60;;;;;;4910761;28;20290;-42
2021/01/01 02:45:53;;;;;;;;;;;4.90;83.50;;;;;;4909218;28;19934;-42
2021/01/01 02:48:20;;;;;;;;;;;4.90;83.50;;;;;;4911419;28;19941;-43
2021/01/01 02:50:49;;;;;;;;;;;4.90;83.40;;;;;;4904218;28;19961;-42
2021/01/01 02:53:16;;;;;;;;;;;4.90;83.40;;;;;;4913656;28;19948;-42
2021/01/01 02:55:42;;;;;;;;;;;4.90;83.30;;;;;;4910737;28;20306;-44
2021/01/01 02:58:08;;;;;;;;;;;4.90;83.30;;;;;;4894182;28;19926;-42
2021/01/01 03:00:37;;;;;;;;;;;4.90;83.40;;;;;;4891509;28;19935;-44
2021/01/01 03:03:03;;;;;;;;;;;4.90;83.40;;;;;;4914282;28;19941;-44
2021/01/01 03:05:29;;;;;;;;;;;4.90;83.40;;;;;;4911463;28;19941;-44
2021/01/01 03:07:55;;;;;;;;;;;4.90;83.30;;;;;;4914710;28;19934;-44
2021/01/01 03:10:22;;;;;;;;;;;4.90;83.30;;;;;;4905966;28;19942;-44
2021/01/01 03:12:49;;;;;;;;;;;4.90;83.30;;;;;;4910523;28;19935;-41
2021/01/01 03:15:15;;;;;;;;;;;4.90;83.40;;;;;;4904938;28;19940;-42
2021/01/01 03:17:42;;;;;;;;;;;4.90;83.40;;;;;;4908014;28;19934;-44
2021/01/01 03:20:08;;;;;;;;;;;4.90;83.50;;;;;;4907822;28;20252;-44
2021/01/01 03:22:36;;;;;;;;;;;4.90;83.50;;;;;;4911707;28;19941;-44
2021/01/01 03:25:05;;;;;;;;;;;4.90;83.60;;;;;;4910885;28;19927;-43
2021/01/01 03:27:32;;;;;;;;;;;4.90;83.60;;;;;;4909534;28;19981;-44
2021/01/01 03:29:59;;;;;;;;;;;4.90;83.70;;;;;;4910351;28;22091;-44
2021/01/01 03:32:25;;;;;;;;;;;4.90;83.60;;;;;;4912108;28;19937;-43
2021/01/01 03:34:52;;;;;;;;;;;4.90;83.60;;;;;;4913042;28;19941;-44
2021/01/01 03:37:18;;;;;;;;;;;4.90;83.70;;;;;;4909437;28;19926;-44
2021/01/01 03:39:44;;;;;;;;;;;4.90;83.70;;;;;;4913671;28;20026;-44
2021/01/01 03:42:11;;;;;;;;;;;4.90;83.70;;;;;;4909981;28;19930;-42
2021/01/01 03:44:38;;;;;;;;;;;5.00;83.60;;;;;;4916710;28;19940;-44
2021/01/01 03:47:05;;;;;;;;;;;4.90;83.60;;;;;;4907316;28;19930;-43
2021/01/01 03:49:31;;;;;;;;;;;4.90;83.50;;;;;;4911934;28;19937;-41
2021/01/01 03:51:58;;;;;;;;;;;4.90;83.50;;;;;;4913684;28;19930;-44
2021/01/01 03:54:24;;;;;;;;;;;4.90;83.50;;;;;;4908731;28;19934;-43
2021/01/01 03:56:50;;;;;;;;;;;4.90;83.60;;;;;;4910240;28;19934;-44
2021/01/01 03:59:16;;;;;;;;;;;4.90;83.70;;;;;;4912607;28;19933;-44
2021/01/01 04:01:42;;;;;;;;;;;4.90;83.70;;;;;;4907026;28;20270;-41
2021/01/01 04:04:08;;;;;;;;;;;5.00;83.60;;;;;;4927786;28;19926;-44
2021/01/01 04:06:35;;;;;;;;;;;4.90;83.60;;;;;;4914031;28;20380;-43
2021/01/01 04:09:01;;;;;;;;;;;4.90;83.60;;;;;;4914570;28;20591;-41
2021/01/01 04:11:27;;;;;;;;;;;5.00;83.60;;;;;;4918099;28;19934;-44
2021/01/01 04:13:53;;;;;;;;;;;5.00;83.50;;;;;;4908523;28;19938;-45
2021/01/01 04:16:19;;;;;;;;;;;4.90;83.50;;;;;;4912084;28;19933;-43
2021/01/01 04:18:46;;;;;;;;;;;4.90;83.60;;;;;;4914216;28;19930;-41
2021/01/01 04:21:12;;;;;;;;;;;4.90;83.70;;;;;;4916554;28;19934;-42
2021/01/01 04:23:38;;;;;;;;;;;4.90;83.60;;;;;;4888494;28;19934;-43
2021/01/01 04:26:08;;;;;;;;;;;4.90;83.60;;;;;;4900239;28;19926;-44
2021/01/01 04:28:34;;;;;;;;;;;4.90;83.60;;;;;;4907732;28;20349;-45
2021/01/01 04:31:01;;;;;;;;;;;4.90;83.60;;;;;;4913287;28;19934;-43
2021/01/01 04:33:27;;;;;;;;;;;4.90;83.70;;;;;;4905511;28;19937;-43
2021/01/01 04:35:53;;;;;;;;;;;4.90;83.70;;;;;;4912575;28;19941;-44
2021/01/01 04:38:21;;;;;;;;;;;4.90;83.80;;;;;;4914873;28;20013;-44
2021/01/01 04:40:50;;;;;;;;;;;4.90;83.70;;;;;;4915274;28;19930;-44
2021/01/01 04:43:16;;;;;;;;;;;4.90;83.80;;;;;;4912794;28;20951;-43
2021/01/01 04:45:43;;;;;;;;;;;4.90;83.70;;;;;;4913028;28;20397;-43
2021/01/01 04:48:09;;;;;;;;;;;4.90;83.80;;;;;;4912658;28;19926;-44
2021/01/01 04:50:38;;;;;;;;;;;5.00;83.80;;;;;;4926012;28;19937;-44
2021/01/01 04:53:07;;;;;;;;;;;5.00;83.80;;;;;;4909460;28;20264;-43
2021/01/01 04:55:33;;;;;;;;;;;5.00;83.80;;;;;;4908778;28;19934;-43
2021/01/01 04:58:01;;;;;;;;;;;5.00;83.90;;;;;;4912184;28;22235;-44
2021/01/01 05:00:27;;;;;;;;;;;5.00;83.90;;;;;;4911300;28;20396;-44
2021/01/01 05:02:53;;;;;;;;;;;5.00;83.90;;;;;;4916431;28;19926;-43
2021/01/01 05:05:26;;;;;;;;;;;5.00;83.90;;;;;;4912047;28;20663;-44
2021/01/01 05:07:52;;;;;;;;;;;5.00;83.90;;;;;;4925529;28;20286;-43
2021/01/01 05:10:20;;;;;;;;;;;5.00;83.90;;;;;;4907389;28;19933;-43
2021/01/01 05:12:47;;;;;;;;;;;5.00;84.00;;;;;;4907367;28;19926;-43
2021/01/01 05:15:14;;;;;;;;;;;5.00;84.00;;;;;;4913999;28;19926;-43
2021/01/01 05:17:40;;;;;;;;;;;5.00;84.00;;;;;;4910396;28;19929;-44
2021/01/01 05:20:10;;;;;;;;;;;5.00;84.00;;;;;;4902244;28;19934;-44
2021/01/01 05:22:36;;;;;;;;;;;5.00;84.00;;;;;;4909518;28;19934;-43
2021/01/01 05:25:16;;;;;;;;;;;5.00;84.10;;;;;;4906211;28;19933;-44
2021/01/01 05:27:46;;;;;;;;;;;5.00;84.10;;;;;;4910550;28;19937;-44
2021/01/01 05:30:12;;;;;;;;;;;5.00;84.10;;;;;;4908896;28;19938;-42
2021/01/01 05:32:49;;;;;;;;;;;5.00;84.10;;;;;;4904791;28;19926;-44
2021/01/01 05:35:29;;;;;;;;;;;5.00;84.10;;;;;;4906576;28;19926;-43
2021/01/01 05:37:58;;;;;;;;;;;5.00;84.00;;;;;;4908269;28;19930;-44
2021/01/01 05:40:28;;;;;;;;;;;5.00;83.80;;;;;;4905083;28;19926;-44
2021/01/01 05:42:54;;;;;;;;;;;5.00;83.80;;;;;;4910473;28;20333;-44
2021/01/01 05:45:25;;;;;;;;;;;5.00;83.80;;;;;;4910752;28;19941;-44
2021/01/01 05:48:02;;;;;;;;;;;5.00;83.70;;;;;;4911638;28;23678;-43
2021/01/01 05:50:30;;;;;;;;;;;5.00;83.80;;;;;;4912088;28;19926;-44
2021/01/01 05:53:31;;;;;;;;;;;5.00;83.80;;;;;;4910378;28;19934;-43
2021/01/01 05:56:07;;;;;;;;;;;5.00;83.80;;;;;;4879888;28;20402;-44
2021/01/01 05:58:33;;;;;;;;;;;5.00;83.80;;;;;;4912757;28;19926;-43
2021/01/01 06:01:00;;;;;;;;;;;5.00;83.80;;;;;;4914479;28;20290;-43
2021/01/01 06:03:28;;;;;;;;;;;5.00;83.80;;;;;;4925007;28;20382;-44
2021/01/01 06:05:55;;;;;;;;;;;5.00;83.80;;;;;;4914968;28;19936;-44
2021/01/01 06:08:28;;;;;;;;;;;5.00;83.80;;;;;;4907411;28;19934;-44
2021/01/01 06:11:03;;;;;;;;;;;5.00;83.80;;;;;;4909541;28;19926;-42
2021/01/01 06:13:30;;;;;;;;;;;5.00;83.80;;;;;;4908879;28;20044;-43
2021/01/01 06:15:57;;;;;;;;;;;5.00;83.80;;;;;;4910887;28;19956;-43
2021/01/01 06:18:25;;;;;;;;;;;5.00;83.80;;;;;;4908555;28;19961;-42
2021/01/01 06:20:57;;;;;;;;;;;5.00;83.80;;;;;;4907082;28;19937;-41
2021/01/01 06:23:30;;;;;;;;;;;5.00;83.80;;;;;;4909074;28;19941;-42
2021/01/01 06:25:57;;;;;;;;;;;5.00;83.80;;;;;;4913034;28;19937;-42
2021/01/01 06:28:24;;;;;;;;;;;5.00;83.70;;;;;;4907312;28;19933;-42
2021/01/01 06:30:51;;;;;;;;;;;5.00;83.70;;;;;;4926715;28;20587;-42
2021/01/01 06:33:18;;;;;;;;;;;5.00;83.70;;;;;;4902897;28;20301;-42
2021/01/01 06:35:44;;;;;;;;;;;5.00;83.70;;;;;;4925385;28;19941;-43
2021/01/01 06:38:11;;;;;;;;;;;5.00;83.70;;;;;;4908999;28;19926;-41
2021/01/01 06:40:38;;;;;;;;;;;5.00;83.70;;;;;;4913407;28;20581;-45
2021/01/01 06:43:08;;;;;;;;;;;5.00;83.60;;;;;;4908766;28;19974;-43
2021/01/01 06:45:35;;;;;;;;;;;5.00;83.60;;;;;;4912093;28;19934;-44
2021/01/01 06:48:06;;;;;;;;;;;5.00;83.60;;;;;;4909363;28;20632;-43
2021/01/01 06:50:37;;;;;;;;;;;5.00;83.70;;;;;;4912874;28;20017;-45
2021/01/01 06:53:03;;;;;;;;;;;5.00;83.70;;;;;;4905814;28;20024;-43
2021/01/01 06:55:31;;;;;;;;;;;5.00;83.70;;;;;;4910376;28;19944;-44
2021/01/01 06:57:57;;;;;;;;;;;5.00;83.70;;;;;;4912941;28;19930;-44
2021/01/01 07:00:42;;;;;;;;;;;5.00;83.70;;;;;;4917954;28;19930;-44
2021/01/01 07:03:24;;;;;;;;;;;5.00;83.80;;;;;;4914793;28;19930;-43
2021/01/01 07:05:50;;;;;;;;;;;5.00;83.80;;;;;;4929487;28;19940;-44
2021/01/01 07:08:35;;;;;;;;;;;5.00;83.70;;;;;;4916194;28;20016;-44
2021/01/01 07:11:01;;;;;;;;;;;4.90;83.70;;;;;;4915478;28;19942;-45
2021/01/01 07:13:39;;;;;;;;;;;4.90;83.70;;;;;;4910516;28;19934;-44
2021/01/01 07:16:05;;;;;;;;;;;4.90;83.60;;;;;;4910869;28;20251;-45
2021/01/01 07:18:32;;;;;;;;;;;4.90;83.70;;;;;;4910584;28;19977;-44
2021/01/01 07:21:02;;;;;;;;;;;4.90;83.60;;;;;;4914632;28;19926;-44
2021/01/01 07:23:29;;;;;;;;;;;4.90;83.60;;;;;;4912271;28;19977;-43
2021/01/01 07:25:57;;;;;;;;;;;4.90;83.50;;;;;;4912811;28;19934;-42
2021/01/01 07:28:24;;;;;;;;;;;4.90;83.40;;;;;;4912162;28;20386;-44
2021/01/01 07:30:50;;;;;;;;;;;4.90;83.30;;;;;;4914420;28;19934;-42
2021/01/01 07:33:19;;;;;;;;;;;4.90;83.30;;;;;;4909348;28;19926;-42
2021/01/01 07:35:53;;;;;;;;;;;4.80;83.30;;;;;;4905706;28;20065;-42
2021/01/01 07:38:21;;;;;;;;;;;4.80;83.30;;;;;;4917455;28;20135;-43
2021/01/01 07:40:48;;;;;;;;;;;4.80;83.20;;;;;;4912930;28;19926;-43
2021/01/01 07:43:15;;;;;;;;;;;4.90;83.30;;;;;;4912191;28;19926;-44
2021/01/01 07:45:41;;;;;;;;;;;4.80;83.30;;;;;;4915030;28;19933;-42
2021/01/01 07:48:07;;;;;;;;;;;4.90;83.20;;;;;;4914801;28;20294;-45
2021/01/01 07:50:34;;;;;;;;;;;4.80;83.20;;;;;;4901135;28;19934;-44
2021/01/01 07:53:04;;;;;;;;;;;4.80;83.10;;;;;;4911333;28;20497;-44
2021/01/01 07:55:33;;;;;;;;;;;4.90;83.10;;;;;;4912250;28;19926;-44
2021/01/01 07:58:00;;;;;;;;;;;4.90;83.10;;;;;;4912850;28;20068;-44
2021/01/01 08:00:30;;;;;;;;;;;4.90;83.20;;;;;;4916460;28;19941;-44
2021/01/01 08:02:56;;;;;;;;;;;4.90;83.20;;;;;;4909085;28;19926;-42
2021/01/01 08:05:23;;;;;;;;;;;4.90;83.30;;;;;;4912161;28;19938;-42
2021/01/01 08:07:50;;;;;;;;;;;4.90;83.30;;;;;;4916465;28;19926;-43
2021/01/01 08:10:29;;;;;;;;;;;4.90;83.40;;;;;;4910602;28;19934;-43
2021/01/01 08:12:55;;;;;;;;;;;4.90;83.30;;;;;;4910138;28;19952;-42
2021/01/01 08:15:28;;;;;;;;;;;4.90;83.20;;;;;;4912989;28;19945;-44
2021/01/01 08:17:54;;;;;;;;;;;4.90;83.20;;;;;;4929045;28;19938;-42
2021/01/01 08:20:21;;;;;;;;;;;4.90;83.30;;;;;;4914387;28;19934;-44
2021/01/01 08:22:47;;;;;;;;;;;5.00;83.30;;;;;;4912984;28;19930;-44
2021/01/01 08:25:14;;;;;;;;;;;5.00;83.30;;;;;;4927980;28;19937;-43
2021/01/01 08:27:43;;;;;;;;;;;5.00;83.30;;;;;;4911258;28;19935;-45
2021/01/01 08:30:10;;;;;;;;;;;5.00;83.30;;;;;;4914189;28;19932;-42
2021/01/01 08:32:38;;;;;;;;;;;5.00;83.30;;;;;;4913008;28;19941;-44
2021/01/01 08:35:08;;;;;;;;;;;5.00;83.20;;;;;;4915075;28;20290;-42
2021/01/01 08:37:34;;;;;;;;;;;5.00;83.20;;;;;;4913440;28;19930;-43
2021/01/01 08:40:05;;;;;;;;;;;5.00;83.20;;;;;;4906628;28;19934;-44
2021/01/01 08:42:35;;;;;;;;;;;5.00;83.30;;;;;;4911071;28;19934;-43
2021/01/01 08:45:11;;;;;;;;;;;5.00;83.30;;;;;;4914408;28;19930;-43
2021/01/01 08:47:40;;;;;;;;;;;5.10;83.30;;;;;;4911193;28;19930;-42
2021/01/01 08:50:19;;;;;;;;;;;5.00;83.40;;;;;;4912191;28;20373;-43
2021/01/01 08:52:47;;;;;;;;;;;5.00;83.50;;;;;;4913322;28;19965;-42
2021/01/01 08:55:13;;;;;;;;;;;5.10;83.50;;;;;;4911799;28;19934;-43
2021/01/01 08:57:39;;;;;;;;;;;5.00;83.60;;;;;;4913762;28;19926;-42
2021/01/01 09:00:06;;;;;;;;;;;5.10;83.60;;;;;;4911076;28;20013;-44
2021/01/01 09:02:33;;;;;;;;;;;5.10;83.50;;;;;;4912499;28;20029;-42
2021/01/01 09:05:01;;;;;;;;;;;5.10;83.60;;;;;;4906702;28;19956;-43
2021/01/01 09:07:31;;;;;;;;;;;5.10;83.50;;;;;;4908482;28;19934;-42
2021/01/01 09:10:13;;;;;;;;;;;5.10;83.50;;;;;;4909583;28;19931;-45
2021/01/01 09:12:40;;;;;;;;;;;5.10;83.50;;;;;;4904158;28;19933;-44
2021/01/01 09:15:06;;;;;;;;;;;5.10;83.40;;;;;;4906957;28;19934;-44
2021/01/01 09:17:32;;;;;;;;;;;5.10;83.50;;;;;;4912233;28;19936;-43
2021/01/01 09:20:00;;;;;;;;;;;5.10;83.30;;;;;;4918119;28;19934;-42
2021/01/01 09:22:30;;;;;;;;;;;5.10;83.20;;;;;;4912489;28;19936;-43
2021/01/01 09:24:56;;;;;;;;;;;5.10;83.20;;;;;;4910078;28;19934;-43
2021/01/01 09:27:25;;;;;;;;;;;5.20;83.00;;;;;;4910140;28;19973;-43
2021/01/01 09:30:02;;;;;;;;;;;5.20;83.00;;;;;;4908959;28;19937;-44
2021/01/01 09:32:29;;;;;;;;;;;5.20;83.00;;;;;;4910388;28;20553;-44
2021/01/01 09:34:55;;;;;;;;;;;5.20;83.00;;;;;;4913941;28;19940;-41
2021/01/01 09:37:23;;;;;;;;;;;5.20;83.00;;;;;;4915908;28;19937;-41
2021/01/01 09:39:50;;;;;;;;;;;5.30;83.00;;;;;;4900772;28;20396;-42
2021/01/01 09:42:16;;;;;;;;;;;5.30;82.80;;;;;;4905398;28;20290;-43
2021/01/01 09:44:42;;;;;;;;;;;5.30;82.80;;;;;;4909110;28;20666;-44
2021/01/01 09:47:08;;;;;;;;;;;5.30;82.80;;;;;;4914498;28;20036;-44
2021/01/01 09:49:38;;;;;;;;;;;5.40;82.70;;;;;;4911403;28;19933;-43
2021/01/01 09:52:06;;;;;;;;;;;5.30;82.60;;;;;;4915381;28;19930;-44
2021/01/01 09:54:37;;;;;;;;;;;5.30;82.60;;;;;;4916518;28;20016;-43
2021/01/01 09:57:03;;;;;;;;;;;5.40;82.40;;;;;;4912724;28;19934;-44
2021/01/01 09:59:33;;;;;;;;;;;5.40;82.20;;;;;;4916928;28;19952;-43
2021/01/01 10:02:00;;;;;;;;;;;5.30;82.30;;;;;;4913106;28;19926;-44
2021/01/01 10:04:29;;;;;;;;;;;5.30;82.00;;;;;;4918477;28;20333;-44
2021/01/01 10:06:55;;;;;;;;;;;5.30;82.00;;;;;;4924226;28;22781;-43
2021/01/01 10:09:21;;;;;;;;;;;5.30;81.80;;;;;;4913701;28;19934;-43
2021/01/01 10:11:52;;;;;;;;;;;5.30;81.70;;;;;;4910432;28;19930;-44
2021/01/01 10:14:18;;;;;;;;;;;5.30;81.70;;;;;;4912182;28;19930;-43
2021/01/01 10:16:46;;;;;;;;;;;5.30;81.70;;;;;;4903216;28;19940;-43
2021/01/01 10:19:13;;;;;;;;;;;5.30;81.80;;;;;;4915096;28;19930;-43
2021/01/01 10:21:44;;;;;;;;;;;5.40;81.90;;;;;;4906109;28;19942;-44
2021/01/01 10:24:10;;;;;;;;;;;5.40;81.80;;;;;;4917049;28;19934;-42
2021/01/01 10:26:37;;;;;;;;;;;5.40;81.80;;;;;;4907681;28;19936;-43
2021/01/01 10:29:19;;;;;;;;;;;5.40;81.90;;;;;;4906344;28;20395;-43
2021/01/01 10:31:46;;;;;;;;;;;5.50;81.80;;;;;;4914094;28;19926;-42
2021/01/01 10:34:12;;;;;;;;;;;5.50;81.50;;;;;;4917400;28;19949;-44
2021/01/01 10:36:39;;;;;;;;;;;5.50;81.90;;;;;;4908838;28;19942;-44
2021/01/01 10:39:07;;;;;;;;;;;5.50;81.90;;;;;;4915445;28;19941;-43
2021/01/01 10:41:33;;;;;;;;;;;5.50;81.90;;;;;;4917155;28;19940;-44
2021/01/01 10:44:01;;;;;;;;;;;5.50;81.80;;;;;;4918727;28;19927;-44
2021/01/01 10:46:27;;;;;;;;;;;5.60;81.60;;;;;;4920032;28;20416;-44
2021/01/01 10:48:54;;;;;;;;;;;5.60;81.30;;;;;;4916820;28;19997;-43
2021/01/01 10:51:21;;;;;;;;;;;5.60;81.20;;;;;;4917388;28;20097;-43
2021/01/01 10:53:47;;;;;;;;;;;5.60;81.40;;;;;;4912602;28;19930;-44
2021/01/01 10:56:25;;;;;;;;;;;5.60;81.40;;;;;;4916136;28;19934;-44
2021/01/01 10:58:51;;;;;;;;;;;5.60;80.80;;;;;;4916916;28;20645;-43
2021/01/01 11:01:19;;;;;;;;;;;5.60;80.80;;;;;;4917031;28;20025;-44
2021/01/01 11:03:49;;;;;;;;;;;5.70;80.50;;;;;;4912022;28;19926;-43
2021/01/01 11:06:16;;;;;;;;;;;5.70;80.30;;;;;;4909124;28;20408;-43
2021/01/01 11:08:43;;;;;;;;;;;5.70;80.20;;;;;;4929048;28;19926;-44
2021/01/01 11:11:11;;;;;;;;;;;5.70;80.10;;;;;;4914747;28;19926;-43
2021/01/01 11:13:44;;;;;;;;;;;5.70;80.10;;;;;;4913071;28;19941;-44
2021/01/01 12:25:17;;;;;;;;;;;6.00;78.90;;;;;;4906864;28;19926;-43
2021/01/01 12:27:44;;;;;;;;;;;6.00;78.90;;;;;;4913921;28;24154;-44
2021/01/01 12:30:11;;;;;;;;;;;6.00;78.80;;;;;;4904356;28;19926;-44
2021/01/01 12:32:38;;;;;;;;;;;6.00;78.70;;;;;;4927274;28;19927;-44
2021/01/01 12:35:05;;;;;;;;;;;5.90;78.70;;;;;;4928723;28;19977;-44
2021/01/01 12:37:32;;;;;;;;;;;5.90;78.50;;;;;;4913586;28;19934;-44
2021/01/01 12:40:01;;;;;;;;;;;6.00;78.50;;;;;;4914563;28;22225;-44
2021/01/01 12:42:27;;;;;;;;;;;6.00;78.40;;;;;;4903617;28;19929;-44
2021/01/01 12:44:53;;;;;;;;;;;6.00;78.40;;;;;;4914000;28;19933;-43
2021/01/01 12:47:20;;;;;;;;;;;6.00;78.30;;;;;;4911240;28;22734;-44
2021/01/01 12:49:46;;;;;;;;;;;6.00;78.30;;;;;;4888639;28;20955;-42
2021/01/01 12:52:13;;;;;;;;;;;6.00;78.30;;;;;;4923374;28;20084;-43
2021/01/01 12:54:39;;;;;;;;;;;6.00;78.40;;;;;;4910293;28;20073;-44
2021/01/01 12:57:05;;;;;;;;;;;6.00;78.20;;;;;;4909587;28;19941;-43
2021/01/01 12:59:32;;;;;;;;;;;6.00;78.00;;;;;;4912481;28;19933;-43
2021/01/01 13:02:02;;;;;;;;;;;6.10;78.20;;;;;;4911274;28;20024;-44
2021/01/01 13:04:28;;;;;;;;;;;6.00;78.20;;;;;;4892458;28;20045;-44
2021/01/01 13:06:55;;;;;;;;;;;6.00;78.00;;;;;;4905461;28;19940;-44
2021/01/01 13:09:24;;;;;;;;;;;6.10;77.90;;;;;;4916704;28;19937;-43
2021/01/01 13:11:50;;;;;;;;;;;6.00;77.90;;;;;;4905440;28;20028;-44
2021/01/01 13:14:17;;;;;;;;;;;6.00;77.80;;;;;;4917981;28;20613;-44
2021/01/01 13:16:43;;;;;;;;;;;6.00;77.70;;;;;;4893260;28;19932;-43
2021/01/01 13:19:10;;;;;;;;;;;6.00;77.70;;;;;;4909628;28;20420;-44
2021/01/01 13:21:38;;;;;;;;;;;6.00;77.70;;;;;;4905852;28;19936;-43
2021/01/01 13:24:05;;;;;;;;;;;6.00;77.60;;;;;;4911611;28;19925;-44
2021/01/01 13:26:32;;;;;;;;;;;6.00;77.60;;;;;;4919684;28;19934;-43
2021/01/01 13:28:58;;;;;;;;;;;6.00;77.70;;;;;;4912322;28;19973;-43
2021/01/01 13:31:41;;;;;;;;;;;6.00;77.60;;;;;;4914846;28;20426;-43
2021/01/01 13:34:09;;;;;;;;;;;6.00;77.60;;;;;;4905204;28;19937;-44
2021/01/01 13:36:36;;;;;;;;;;;6.10;77.80;;;;;;4912261;28;20291;-43
2021/01/01 13:39:03;;;;;;;;;;;6.10;78.00;;;;;;4911329;28;19941;-43
2021/01/01 13:41:29;;;;;;;;;;;6.10;77.80;;;;;;4915783;28;19932;-44
2021/01/01 13:43:57;;;;;;;;;;;6.10;77.50;;;;;;4910228;28;19926;-43
2021/01/01 13:46:27;;;;;;;;;;;6.10;77.30;;;;;;4914643;28;20445;-43
2021/01/01 13:48:56;;;;;;;;;;;6.10;77.50;;;;;;4908324;28;20409;-43
2021/01/01 13:51:28;;;;;;;;;;;6.00;77.30;;;;;;4907517;28;19926;-44
2021/01/01 13:53:58;;;;;;;;;;;6.00;77.20;;;;;;4910775;28;19933;-43
2021/01/01 13:56:24;;;;;;;;;;;6.00;77.20;;;;;;4909281;28;19958;-42
2021/01/01 13:58:51;;;;;;;;;;;6.00;77.20;;;;;;4910229;28;19927;-44
2021/01/01 14:01:18;;;;;;;;;;;6.10;77.30;;;;;;4917581;28;19937;-44
2021/01/01 14:03:46;;;;;;;;;;;6.10;77.30;;;;;;4906477;28;19930;-43
2021/01/01 14:06:14;;;;;;;;;;;6.10;77.20;;;;;;4920996;28;20315;-43
2021/01/01 14:08:41;;;;;;;;;;;6.10;77.30;;;;;;4911379;28;19934;-43
2021/01/01 14:11:33;;;;;;;;;;;6.10;77.30;;;;;;4911470;28;20029;-43
2021/01/01 14:14:00;;;;;;;;;;;6.10;77.30;;;;;;4906307;28;21955;-43
2021/01/01 14:16:26;;;;;;;;;;;6.10;77.20;;;;;;4913074;28;20270;-43
2021/01/01 14:18:53;;;;;;;;;;;6.10;77.20;;;;;;4913146;28;19926;-43
2021/01/01 14:21:27;;;;;;;;;;;6.00;77.20;;;;;;4897876;28;19970;-43
2021/01/01 14:23:54;;;;;;;;;;;6.10;77.30;;;;;;4912834;28;20021;-44
2021/01/01 14:26:20;;;;;;;;;;;6.00;77.30;;;;;;4910573;28;19961;-43
2021/01/01 14:28:47;;;;;;;;;;;6.00;77.40;;;;;;4916366;28;20497;-43
2021/01/01 14:31:14;;;;;;;;;;;6.00;77.40;;;;;;4912234;28;19961;-43
2021/01/01 14:33:40;;;;;;;;;;;6.00;77.70;;;;;;4909307;28;19933;-43
2021/01/01 14:36:06;;;;;;;;;;;6.00;77.60;;;;;;4904922;28;21314;-43
2021/01/01 14:38:32;;;;;;;;;;;6.00;77.60;;;;;;4909763;28;20013;-44
2021/01/01 14:41:00;;;;;;;;;;;6.00;77.70;;;;;;4909237;28;19930;-43
2021/01/01 14:43:34;;;;;;;;;;;6.00;77.80;;;;;;4907047;28;19941;-43
2021/01/01 14:46:00;;;;;;;;;;;6.00;77.70;;;;;;4908155;28;19934;-43
2021/01/01 14:48:26;;;;;;;;;;;6.00;77.60;;;;;;4918902;28;20151;-43
2021/01/01 14:50:53;;;;;;;;;;;6.00;77.70;;;;;;4914057;28;20290;-43
2021/01/01 14:53:19;;;;;;;;;;;6.00;77.70;;;;;;4920341;28;20412;-43
2021/01/01 14:55:49;;;;;;;;;;;6.00;77.80;;;;;;4914133;28;19934;-43
2021/01/01 14:58:15;;;;;;;;;;;6.00;77.80;;;;;;4927910;28;19926;-44
2021/01/01 15:00:42;;;;;;;;;;;6.00;77.90;;;;;;4916066;28;20002;-44
2021/01/01 15:03:08;;;;;;;;;;;5.90;77.80;;;;;;4909576;28;19984;-44
2021/01/01 15:05:35;;;;;;;;;;;5.90;78.10;;;;;;4908132;28;24132;-44
2021/01/01 15:08:01;;;;;;;;;;;5.90;78.10;;;;;;4909532;28;19933;-43
2021/01/01 15:10:27;;;;;;;;;;;5.90;78.20;;;;;;4906531;28;19929;-44
2021/01/01 15:12:53;;;;;;;;;;;5.90;77.70;;;;;;4909261;28;19930;-44
2021/01/01 15:15:19;;;;;;;;;;;5.90;77.90;;;;;;4909612;28;19942;-44
2021/01/01 15:17:46;;;;;;;;;;;5.90;78.20;;;;;;4903741;28;20714;-43
2021/01/01 15:20:12;;;;;;;;;;;5.90;78.40;;;;;;4904123;28;19936;-44
2021/01/01 15:22:39;;;;;;;;;;;5.90;78.50;;;;;;4910618;28;19934;-43
2021/01/01 15:25:07;;;;;;;;;;;5.90;78.50;;;;;;4908026;28;19961;-44
2021/01/01 15:27:34;;;;;;;;;;;5.90;78.40;;;;;;4908747;28;20095;-43
2021/01/01 15:30:00;;;;;;;;;;;5.90;78.50;;;;;;4908836;28;19934;-43
2021/01/01 15:32:27;;;;;;;;;;;5.90;78.50;;;;;;4913076;28;20444;-43
2021/01/01 15:34:53;;;;;;;;;;;5.80;78.60;;;;;;4912949;28;20322;-44
2021/01/01 15:37:19;;;;;;;;;;;5.80;78.60;;;;;;4914339;28;22026;-43
2021/01/01 15:39:47;;;;;;;;;;;5.80;78.60;;;;;;4914278;28;19933;-42
2021/01/01 15:42:13;;;;;;;;;;;5.80;78.60;;;;;;4901986;28;19941;-43
2021/01/01 15:44:39;;;;;;;;;;;5.80;78.70;;;;;;4907037;28;19934;-43